Time;durP1;ratioP1;P1;durP2;ratioP2;P2;SDS_P1;SDS_P2;PMS_P1;PMS_P2;Temp;Humidity;BMP_temperature;BMP_pressure;BME280_temperature;BME280_humidity;BME280_pressure;Samples;Min_cycle;Max_cycle;Signal;HPM_P1;HPM_P2
2022/07/16 00:02:44;;;;;;;8.17;4.33;;;;;;;;;;3333434;42;20159;-56
2022/07/16 00:05:10;;;;;;;8.40;4.50;;;;;;;;;;3353555;42;20087;-58
2022/07/16 00:07:36;;;;;;;9.45;4.80;;;;;;;;;;3366615;42;20099;-58
2022/07/16 00:10:03;;;;;;;9.55;4.68;;;;;;;;;;3357589;42;20092;-58
2022/07/16 00:12:29;;;;;;;7.60;4.40;;;;;;;;;;3367107;42;20155;-57
2022/07/16 00:14:54;;;;;;;7.85;4.30;;;;;;;;;;3366851;42;20107;-57
2022/07/16 00:17:20;;;;;;;9.43;4.80;;;;;;;;;;3358072;42;20181;-58
2022/07/16 00:19:46;;;;;;;7.72;4.50;;;;;;;;;;3367892;42;20092;-58
2022/07/16 00:22:12;;;;;;;7.73;4.20;;;;;;;;;;3366501;42;20502;-57
2022/07/16 00:24:38;;;;;;;8.27;5.00;;;;;;;;;;3366614;42;20614;-57
2022/07/16 00:27:04;;;;;;;8.80;4.50;;;;;;;;;;3354221;42;20080;-59
2022/07/16 00:29:30;;;;;;;10.27;4.78;;;;;;;;;;3370516;42;20095;-58
2022/07/16 00:31:56;;;;;;;9.13;4.50;;;;;;;;;;3370449;42;20103;-56
2022/07/16 00:34:22;;;;;;;8.23;4.70;;;;;;;;;;3358796;42;20091;-56
2022/07/16 00:36:48;;;;;;;8.88;4.28;;;;;;;;;;3366950;42;20509;-57
2022/07/16 00:39:15;;;;;;;9.15;4.75;;;;;;;;;;3357595;42;20111;-58
2022/07/16 00:41:41;;;;;;;7.90;4.37;;;;;;;;;;3366589;42;20566;-56
2022/07/16 00:44:09;;;;;;;9.93;4.55;;;;;;;;;;3352837;42;20147;-57
2022/07/16 00:46:36;;;;;;;7.50;4.28;;;;;;;;;;3366716;42;20139;-57
2022/07/16 00:49:02;;;;;;;11.20;4.85;;;;;;;;;;3366425;42;20166;-58
2022/07/16 00:51:28;;;;;;;7.72;4.55;;;;;;;;;;3357165;42;20111;-57
2022/07/16 00:53:54;;;;;;;8.53;4.97;;;;;;;;;;3366096;42;20094;-56
2022/07/16 00:56:20;;;;;;;11.15;4.53;;;;;;;;;;3365244;42;20198;-56
2022/07/16 00:58:47;;;;;;;9.90;4.43;;;;;;;;;;3351334;42;20599;-56
2022/07/16 01:01:13;;;;;;;8.38;4.22;;;;;;;;;;3365241;42;20139;-57
2022/07/16 01:03:39;;;;;;;7.50;4.30;;;;;;;;;;3356998;42;20146;-57
2022/07/16 01:06:06;;;;;;;9.57;4.03;;;;;;;;;;3352642;42;20144;-58
2022/07/16 01:08:35;;;;;;;10.35;4.20;;;;;;;;;;3352256;42;20092;-57
2022/07/16 01:11:03;;;;;;;7.25;4.15;;;;;;;;;;3358091;42;20091;-58
2022/07/16 01:13:29;;;;;;;7.85;3.90;;;;;;;;;;3358172;42;20563;-57
2022/07/16 01:15:55;;;;;;;9.02;4.00;;;;;;;;;;3357787;42;20170;-57
2022/07/16 01:18:21;;;;;;;7.20;3.90;;;;;;;;;;3366125;42;20098;-56
2022/07/16 01:20:46;;;;;;;8.98;4.22;;;;;;;;;;3351556;42;20505;-57
2022/07/16 01:23:19;;;;;;;9.73;4.10;;;;;;;;;;3345976;42;20079;-58
2022/07/16 01:25:45;;;;;;;7.85;3.70;;;;;;;;;;3352112;42;20601;-58
2022/07/16 01:28:11;;;;;;;6.90;3.60;;;;;;;;;;3366164;42;20098;-57
2022/07/16 01:30:37;;;;;;;7.53;3.90;;;;;;;;;;3367017;42;20518;-57
2022/07/16 01:33:21;;;;;;;8.38;3.70;;;;;;;;;;3367234;42;20103;-56
2022/07/16 01:35:48;;;;;;;7.82;3.80;;;;;;;;;;3369620;42;20106;-56
2022/07/16 01:38:13;;;;;;;7.33;3.57;;;;;;;;;;3367382;42;20098;-57
2022/07/16 01:40:39;;;;;;;6.85;3.80;;;;;;;;;;3367840;42;20080;-55
2022/07/16 01:43:32;;;;;;;7.35;3.50;;;;;;;;;;3368256;42;20162;-57
2022/07/16 01:45:58;;;;;;;7.63;3.78;;;;;;;;;;3366123;42;20102;-57
2022/07/16 01:48:24;;;;;;;8.57;3.50;;;;;;;;;;3367681;42;20159;-58
2022/07/16 01:50:51;;;;;;;8.18;3.83;;;;;;;;;;3367743;42;20096;-55
2022/07/16 01:53:17;;;;;;;7.95;3.50;;;;;;;;;;3367642;42;20088;-56
2022/07/16 01:55:43;;;;;;;8.88;3.80;;;;;;;;;;3367727;42;20110;-56
2022/07/16 01:58:10;;;;;;;8.07;3.75;;;;;;;;;;3367619;42;20209;-57
2022/07/16 02:00:36;;;;;;;6.50;3.70;;;;;;;;;;3367911;42;20598;-57
2022/07/16 02:03:03;;;;;;;6.50;3.65;;;;;;;;;;3354276;42;20609;-57
2022/07/16 02:05:29;;;;;;;8.27;3.72;;;;;;;;;;3358973;42;20151;-59
2022/07/16 02:07:55;;;;;;;7.05;3.58;;;;;;;;;;3367919;42;20092;-56
2022/07/16 02:10:20;;;;;;;6.77;3.80;;;;;;;;;;3367786;42;20656;-56
2022/07/16 02:12:46;;;;;;;6.53;3.63;;;;;;;;;;3367916;42;20290;-56
2022/07/16 02:15:12;;;;;;;8.80;3.50;;;;;;;;;;3367315;42;20088;-57
2022/07/16 02:17:39;;;;;;;7.72;3.85;;;;;;;;;;3353362;42;20132;-56
2022/07/16 02:20:06;;;;;;;9.07;3.80;;;;;;;;;;3365453;42;20075;-57
2022/07/16 02:22:32;;;;;;;6.50;3.37;;;;;;;;;;3367320;42;20092;-56
2022/07/16 02:24:58;;;;;;;6.03;3.28;;;;;;;;;;3367386;42;20122;-55
2022/07/16 02:27:24;;;;;;;7.63;3.22;;;;;;;;;;3367587;42;20574;-56
2022/07/16 02:29:50;;;;;;;8.32;3.10;;;;;;;;;;3367410;42;20232;-56
2022/07/16 02:32:16;;;;;;;6.60;3.57;;;;;;;;;;3367627;42;20163;-56
2022/07/16 02:34:42;;;;;;;7.32;3.50;;;;;;;;;;3359096;42;20138;-56
2022/07/16 02:37:08;;;;;;;6.28;3.40;;;;;;;;;;3366829;42;20489;-56
2022/07/16 02:39:34;;;;;;;6.57;3.13;;;;;;;;;;3367426;42;20080;-56
2022/07/16 02:42:00;;;;;;;6.47;3.22;;;;;;;;;;3367155;42;20099;-56
2022/07/16 02:44:26;;;;;;;6.77;2.90;;;;;;;;;;3367364;42;20087;-54
2022/07/16 02:46:52;;;;;;;6.75;3.13;;;;;;;;;;3367465;42;20203;-57
2022/07/16 02:49:18;;;;;;;6.45;2.90;;;;;;;;;;3367203;42;20094;-56
2022/07/16 02:51:44;;;;;;;5.90;2.87;;;;;;;;;;3367607;42;20253;-57
2022/07/16 02:54:10;;;;;;;6.28;3.10;;;;;;;;;;3367335;42;20142;-56
2022/07/16 02:56:36;;;;;;;6.88;2.85;;;;;;;;;;3367331;42;20087;-56
2022/07/16 02:59:02;;;;;;;6.65;2.92;;;;;;;;;;3358425;42;20187;-56
2022/07/16 03:01:28;;;;;;;8.43;3.08;;;;;;;;;;3367292;42;20083;-58
2022/07/16 03:03:54;;;;;;;7.63;2.60;;;;;;;;;;3367535;42;20087;-56
2022/07/16 03:06:20;;;;;;;7.28;2.70;;;;;;;;;;3367439;42;20091;-55
2022/07/16 03:08:46;;;;;;;8.25;2.80;;;;;;;;;;3366933;42;20094;-56
2022/07/16 03:11:12;;;;;;;5.40;2.63;;;;;;;;;;3354850;42;20143;-55
2022/07/16 03:13:38;;;;;;;5.50;2.93;;;;;;;;;;3367190;42;20135;-57
2022/07/16 03:16:04;;;;;;;5.35;2.63;;;;;;;;;;3351807;42;20183;-56
2022/07/16 03:18:30;;;;;;;5.20;2.70;;;;;;;;;;3367340;42;20523;-56
2022/07/16 03:20:56;;;;;;;5.43;2.60;;;;;;;;;;3367601;42;20490;-56
2022/07/16 03:23:22;;;;;;;7.13;2.67;;;;;;;;;;3367065;42;20302;-55
2022/07/16 03:25:48;;;;;;;6.93;2.80;;;;;;;;;;3367453;42;20550;-60
2022/07/16 03:28:14;;;;;;;6.47;2.67;;;;;;;;;;3367137;42;20090;-56
2022/07/16 03:30:40;;;;;;;6.87;2.87;;;;;;;;;;3367237;42;20083;-57
2022/07/16 03:33:06;;;;;;;6.03;2.60;;;;;;;;;;3366958;42;20134;-54
2022/07/16 03:35:32;;;;;;;5.30;2.70;;;;;;;;;;3367518;42;20088;-57
2022/07/16 03:40:42;;;;;;;8.85;2.50;;;;;;;;;;3367155;42;20096;-56
2022/07/16 03:43:08;;;;;;;7.15;2.53;;;;;;;;;;3366974;42;20565;-56
2022/07/16 03:45:34;;;;;;;5.95;2.70;;;;;;;;;;3367425;42;20562;-57
2022/07/16 03:48:00;;;;;;;5.75;2.47;;;;;;;;;;3367277;42;20087;-57
2022/07/16 03:50:26;;;;;;;7.50;3.27;;;;;;;;;;3367058;42;20110;-56
2022/07/16 03:52:52;;;;;;;5.28;2.40;;;;;;;;;;3366970;42;20106;-57
2022/07/16 03:55:18;;;;;;;5.78;2.60;;;;;;;;;;3367176;42;20102;-56
2022/07/16 03:57:44;;;;;;;6.07;2.70;;;;;;;;;;3366911;42;20088;-57
2022/07/16 04:00:11;;;;;;;6.00;2.50;;;;;;;;;;3367087;42;20542;-59
2022/07/16 04:02:37;;;;;;;7.63;2.70;;;;;;;;;;3366833;42;20566;-57
2022/07/16 04:05:03;;;;;;;6.57;2.60;;;;;;;;;;3367017;42;20142;-56
2022/07/16 04:07:29;;;;;;;6.40;2.63;;;;;;;;;;3367118;42;20160;-57
2022/07/16 04:09:55;;;;;;;6.57;2.60;;;;;;;;;;3367203;42;20079;-57
2022/07/16 04:12:24;;;;;;;6.20;2.72;;;;;;;;;;3366880;42;20118;-57
2022/07/16 04:14:50;;;;;;;7.35;2.53;;;;;;;;;;3367153;42;20095;-57
2022/07/16 04:17:16;;;;;;;5.93;2.70;;;;;;;;;;3351521;42;20091;-57
2022/07/16 04:19:42;;;;;;;5.40;2.73;;;;;;;;;;3366750;42;20161;-56
2022/07/16 04:22:08;;;;;;;7.13;2.60;;;;;;;;;;3366709;42;20102;-60
2022/07/16 04:24:34;;;;;;;8.25;2.60;;;;;;;;;;3366979;42;20076;-57
2022/07/16 04:27:00;;;;;;;6.32;3.03;;;;;;;;;;3366887;42;20555;-58
2022/07/16 04:29:26;;;;;;;7.67;2.50;;;;;;;;;;3366976;42;20072;-57
2022/07/16 04:31:52;;;;;;;7.53;2.70;;;;;;;;;;3368172;42;20079;-58
2022/07/16 04:34:18;;;;;;;6.03;2.40;;;;;;;;;;3366874;42;20076;-58
2022/07/16 04:36:44;;;;;;;5.20;2.70;;;;;;;;;;3366842;42;20076;-56
2022/07/16 04:39:10;;;;;;;5.78;2.50;;;;;;;;;;3366814;42;20127;-56
2022/07/16 04:41:36;;;;;;;5.40;2.15;;;;;;;;;;3363603;42;20092;-57
2022/07/16 04:44:02;;;;;;;5.05;2.45;;;;;;;;;;3367119;42;20215;-55
2022/07/16 04:46:28;;;;;;;6.95;2.50;;;;;;;;;;3367362;42;20607;-57
2022/07/16 04:48:54;;;;;;;6.40;2.60;;;;;;;;;;3366469;42;20127;-57
2022/07/16 04:51:20;;;;;;;5.30;2.70;;;;;;;;;;3366781;42;20118;-54
2022/07/16 04:53:46;;;;;;;6.72;2.50;;;;;;;;;;3366755;42;20564;-56
2022/07/16 04:56:12;;;;;;;5.13;2.60;;;;;;;;;;3367102;42;20585;-58
2022/07/16 04:58:38;;;;;;;5.68;2.80;;;;;;;;;;3367255;42;20103;-56
2022/07/16 05:01:04;;;;;;;8.18;3.20;;;;;;;;;;3366820;42;20095;-54
2022/07/16 05:03:32;;;;;;;6.65;2.80;;;;;;;;;;3370712;42;20100;-54
2022/07/16 05:05:58;;;;;;;5.50;2.65;;;;;;;;;;3370183;42;20155;-56
2022/07/16 05:08:24;;;;;;;6.05;2.90;;;;;;;;;;3368102;42;20135;-58
2022/07/16 05:10:49;;;;;;;5.97;2.78;;;;;;;;;;3366865;42;20166;-55
2022/07/16 05:13:15;;;;;;;5.90;2.50;;;;;;;;;;3368417;42;20608;-55
2022/07/16 05:15:41;;;;;;;6.97;2.58;;;;;;;;;;3370474;42;20088;-54
2022/07/16 05:18:08;;;;;;;6.15;2.50;;;;;;;;;;3374243;42;20493;-56
2022/07/16 05:20:34;;;;;;;7.30;2.78;;;;;;;;;;3373067;42;20117;-55
2022/07/16 05:23:00;;;;;;;6.35;2.53;;;;;;;;;;3371459;42;20083;-55
2022/07/16 05:25:26;;;;;;;5.70;2.38;;;;;;;;;;3365564;42;20585;-57
2022/07/16 05:27:52;;;;;;;5.60;2.47;;;;;;;;;;3374395;42;20092;-56
2022/07/16 05:30:18;;;;;;;4.80;2.50;;;;;;;;;;3361909;42;20254;-57
2022/07/16 05:32:44;;;;;;;5.97;2.60;;;;;;;;;;3377599;42;20183;-55
2022/07/16 05:35:11;;;;;;;8.40;3.80;;;;;;;;;;3370681;42;20166;-57
2022/07/16 05:37:37;;;;;;;7.10;2.90;;;;;;;;;;3370331;42;20166;-57
2022/07/16 05:40:04;;;;;;;6.70;2.60;;;;;;;;;;3371933;42;20541;-56
2022/07/16 05:42:30;;;;;;;6.45;2.50;;;;;;;;;;3370408;42;20583;-56
2022/07/16 05:44:56;;;;;;;6.72;2.50;;;;;;;;;;3370433;42;20563;-53
2022/07/16 05:47:22;;;;;;;6.10;2.57;;;;;;;;;;3370728;42;20139;-55
2022/07/16 05:49:48;;;;;;;6.25;2.53;;;;;;;;;;3370159;42;20601;-56
2022/07/16 05:52:14;;;;;;;6.57;2.78;;;;;;;;;;3370095;42;20641;-58
2022/07/16 05:54:40;;;;;;;6.85;2.38;;;;;;;;;;3369755;42;20103;-55
2022/07/16 05:57:06;;;;;;;7.78;3.13;;;;;;;;;;3361259;42;20088;-53
2022/07/16 05:59:32;;;;;;;5.28;2.70;;;;;;;;;;3356898;42;20100;-56
2022/07/16 06:01:58;;;;;;;6.82;3.10;;;;;;;;;;3368386;42;20091;-56
2022/07/16 06:04:24;;;;;;;9.55;2.80;;;;;;;;;;3369330;42;20083;-55
2022/07/16 06:06:50;;;;;;;9.27;2.50;;;;;;;;;;3369176;42;20102;-55
2022/07/16 06:09:16;;;;;;;5.10;2.40;;;;;;;;;;3370832;42;20103;-55
2022/07/16 06:11:42;;;;;;;7.03;2.55;;;;;;;;;;3371253;42;20566;-56
2022/07/16 06:14:08;;;;;;;6.50;2.45;;;;;;;;;;3364446;42;20087;-56
2022/07/16 06:16:34;;;;;;;7.55;2.38;;;;;;;;;;3368445;42;20143;-57
2022/07/16 06:19:00;;;;;;;5.80;2.40;;;;;;;;;;3370369;42;20098;-56
2022/07/16 06:21:25;;;;;;;5.00;2.33;;;;;;;;;;3369747;42;20167;-56
2022/07/16 06:23:51;;;;;;;6.15;2.20;;;;;;;;;;3366842;42;20100;-56
2022/07/16 06:26:17;;;;;;;5.93;2.40;;;;;;;;;;3367480;42;20076;-55
2022/07/16 06:28:43;;;;;;;9.73;2.70;;;;;;;;;;3367119;42;20311;-55
2022/07/16 06:31:09;;;;;;;5.38;2.53;;;;;;;;;;3367004;42;20107;-56
2022/07/16 06:33:35;;;;;;;6.72;2.35;;;;;;;;;;3367377;42;20079;-54
2022/07/16 06:36:01;;;;;;;5.83;2.40;;;;;;;;;;3367119;42;20088;-56
2022/07/16 06:38:27;;;;;;;7.03;2.33;;;;;;;;;;3366795;42;20224;-56
2022/07/16 06:40:53;;;;;;;7.00;2.50;;;;;;;;;;3366821;42;20143;-54
2022/07/16 06:43:19;;;;;;;5.80;2.58;;;;;;;;;;3366510;42;20099;-57
2022/07/16 06:45:45;;;;;;;5.47;2.20;;;;;;;;;;3366596;42;20099;-56
2022/07/16 06:48:11;;;;;;;5.57;2.45;;;;;;;;;;3367210;42;20079;-57
2022/07/16 06:50:37;;;;;;;5.60;2.30;;;;;;;;;;3367304;42;20135;-58
2022/07/16 06:53:03;;;;;;;8.13;2.55;;;;;;;;;;3366414;42;20094;-58
2022/07/16 06:55:29;;;;;;;5.68;2.28;;;;;;;;;;3366655;42;20087;-58
2022/07/16 06:57:55;;;;;;;5.35;2.20;;;;;;;;;;3366536;42;20106;-57
2022/07/16 07:00:21;;;;;;;8.25;2.50;;;;;;;;;;3366349;42;20095;-57
2022/07/16 07:02:47;;;;;;;8.00;2.30;;;;;;;;;;3366055;42;20091;-57
2022/07/16 07:05:13;;;;;;;6.20;2.40;;;;;;;;;;3365935;42;20366;-57
2022/07/16 07:07:39;;;;;;;6.40;2.50;;;;;;;;;;3366458;42;20094;-57
2022/07/16 07:10:05;;;;;;;5.93;2.45;;;;;;;;;;3366499;42;20128;-57
2022/07/16 07:12:32;;;;;;;5.20;2.30;;;;;;;;;;3366336;42;20107;-57
2022/07/16 07:14:58;;;;;;;7.70;2.85;;;;;;;;;;3366628;42;20092;-57
2022/07/16 07:17:24;;;;;;;7.97;2.70;;;;;;;;;;3366850;42;20102;-54
2022/07/16 07:19:50;;;;;;;6.45;2.40;;;;;;;;;;3365958;42;20122;-58
2022/07/16 07:22:16;;;;;;;7.80;2.50;;;;;;;;;;3366671;42;20115;-57
2022/07/16 07:24:42;;;;;;;6.18;2.40;;;;;;;;;;3353982;42;20126;-58
2022/07/16 07:27:08;;;;;;;6.65;2.47;;;;;;;;;;3365509;42;20151;-58
2022/07/16 07:29:34;;;;;;;5.30;2.28;;;;;;;;;;3364952;42;20102;-56
2022/07/16 07:32:00;;;;;;;6.38;2.80;;;;;;;;;;3365288;42;20161;-58
2022/07/16 07:34:26;;;;;;;6.53;2.78;;;;;;;;;;3365237;42;20274;-58
2022/07/16 07:36:52;;;;;;;6.20;3.10;;;;;;;;;;3364607;42;20591;-59
2022/07/16 07:39:18;;;;;;;7.73;3.00;;;;;;;;;;3364832;42;20694;-58
2022/07/16 07:41:44;;;;;;;6.68;3.38;;;;;;;;;;3365156;42;20108;-57
2022/07/16 07:44:10;;;;;;;6.43;3.33;;;;;;;;;;3365371;42;20096;-57
2022/07/16 07:46:36;;;;;;;6.30;3.40;;;;;;;;;;3364791;42;20102;-58
2022/07/16 07:49:02;;;;;;;6.30;2.67;;;;;;;;;;3366822;42;20103;-58
2022/07/16 07:51:28;;;;;;;6.55;2.50;;;;;;;;;;3367536;42;20173;-58
2022/07/16 07:53:54;;;;;;;5.30;2.28;;;;;;;;;;3366121;42;20092;-57
2022/07/16 07:56:20;;;;;;;4.85;2.13;;;;;;;;;;3365200;42;20094;-56
2022/07/16 07:58:46;;;;;;;5.50;2.17;;;;;;;;;;3365357;42;20092;-59
2022/07/16 08:01:12;;;;;;;6.88;2.50;;;;;;;;;;3366182;42;20095;-57
2022/07/16 08:03:38;;;;;;;7.75;2.10;;;;;;;;;;3366289;42;20196;-58
2022/07/16 08:06:04;;;;;;;4.93;2.13;;;;;;;;;;3365999;42;20098;-57
2022/07/16 08:08:30;;;;;;;5.25;2.03;;;;;;;;;;3365978;42;20177;-59
2022/07/16 08:10:56;;;;;;;5.00;2.10;;;;;;;;;;3365707;42;20566;-59
2022/07/16 08:13:22;;;;;;;8.93;2.47;;;;;;;;;;3365866;42;20185;-58
2022/07/16 08:15:49;;;;;;;5.10;2.10;;;;;;;;;;3365672;42;20127;-58
2022/07/16 08:18:15;;;;;;;8.80;2.33;;;;;;;;;;3366012;42;20135;-56
2022/07/16 08:20:41;;;;;;;6.38;2.40;;;;;;;;;;3366327;42;20597;-57
2022/07/16 08:23:07;;;;;;;6.18;2.10;;;;;;;;;;3368009;42;20553;-58
2022/07/16 08:25:45;;;;;;;6.22;2.03;;;;;;;;;;3366049;42;20092;-58
2022/07/16 08:28:14;;;;;;;6.28;2.20;;;;;;;;;;3365979;42;20111;-58
2022/07/16 08:30:40;;;;;;;6.00;2.15;;;;;;;;;;3366125;42;20102;-58
2022/07/16 08:33:06;;;;;;;8.63;2.42;;;;;;;;;;3366410;42;20088;-58
2022/07/16 08:35:32;;;;;;;6.37;2.37;;;;;;;;;;3365931;42;20087;-58
2022/07/16 08:37:58;;;;;;;4.70;2.00;;;;;;;;;;3365175;42;20083;-59
2022/07/16 08:40:24;;;;;;;5.47;2.17;;;;;;;;;;3365837;42;20088;-58
2022/07/16 08:42:50;;;;;;;5.85;2.20;;;;;;;;;;3365528;42;20555;-59
2022/07/16 08:45:18;;;;;;;6.03;2.30;;;;;;;;;;3355797;42;20216;-57
2022/07/16 08:47:44;;;;;;;5.03;2.22;;;;;;;;;;3366997;42;20882;-59
2022/07/16 08:50:12;;;;;;;6.85;2.30;;;;;;;;;;3367553;42;20633;-57
2022/07/16 08:52:43;;;;;;;6.07;2.30;;;;;;;;;;3358570;42;20739;-56
2022/07/16 08:55:09;;;;;;;7.28;2.60;;;;;;;;;;3368027;42;20501;-58
2022/07/16 08:57:39;;;;;;;6.27;2.20;;;;;;;;;;3353697;42;20143;-57
2022/07/16 09:00:07;;;;;;;6.35;2.15;;;;;;;;;;3367407;42;20111;-58
2022/07/16 09:02:34;;;;;;;5.85;2.20;;;;;;;;;;3358282;42;20151;-57
2022/07/16 09:05:00;;;;;;;5.80;2.30;;;;;;;;;;3366984;42;20708;-58
2022/07/16 09:07:26;;;;;;;5.68;2.30;;;;;;;;;;3367388;42;20158;-58
2022/07/16 09:09:52;;;;;;;6.83;2.43;;;;;;;;;;3367658;42;20088;-57
2022/07/16 09:12:41;;;;;;;5.28;2.30;;;;;;;;;;3365078;42;20208;-58
2022/07/16 09:15:34;;;;;;;5.97;2.30;;;;;;;;;;3368825;42;20099;-59
2022/07/16 09:18:16;;;;;;;5.32;2.10;;;;;;;;;;3366785;42;20150;-59
2022/07/16 09:21:00;;;;;;;5.80;2.40;;;;;;;;;;3368606;42;20161;-58
2022/07/16 09:23:35;;;;;;;5.20;2.28;;;;;;;;;;3363179;42;20100;-60
2022/07/16 09:26:05;;;;;;;5.63;2.28;;;;;;;;;;3367365;42;20105;-59
2022/07/16 09:28:59;;;;;;;5.70;2.20;;;;;;;;;;3366535;42;20587;-57
2022/07/16 09:31:39;;;;;;;5.22;2.20;;;;;;;;;;3357816;42;20098;-56
2022/07/16 09:34:12;;;;;;;7.63;2.10;;;;;;;;;;3367378;42;20131;-56
2022/07/16 09:36:38;;;;;;;7.50;2.47;;;;;;;;;;3365757;42;20092;-57
2022/07/16 09:39:06;;;;;;;6.22;2.10;;;;;;;;;;3357641;42;20582;-59
2022/07/16 09:41:45;;;;;;;5.10;2.38;;;;;;;;;;3366811;42;20092;-58
2022/07/16 09:44:19;;;;;;;6.85;3.60;;;;;;;;;;3362749;42;20601;-57
2022/07/16 09:47:04;;;;;;;6.10;2.30;;;;;;;;;;3369812;42;20110;-57
2022/07/16 09:49:32;;;;;;;5.20;2.17;;;;;;;;;;3362959;42;20092;-58
2022/07/16 09:51:58;;;;;;;5.75;2.42;;;;;;;;;;3365952;42;20518;-57
2022/07/16 09:54:29;;;;;;;5.30;2.30;;;;;;;;;;3366933;42;20578;-56
2022/07/16 09:57:07;;;;;;;5.73;2.10;;;;;;;;;;3347759;42;20097;-58
2022/07/16 09:59:33;;;;;;;5.95;2.30;;;;;;;;;;3362795;42;20084;-57
2022/07/16 10:02:01;;;;;;;6.18;2.42;;;;;;;;;;3364239;42;20099;-57
2022/07/16 10:04:27;;;;;;;5.25;2.00;;;;;;;;;;3357961;42;20509;-56
2022/07/16 10:06:53;;;;;;;5.20;2.38;;;;;;;;;;3344921;42;20520;-57
2022/07/16 10:09:19;;;;;;;6.20;2.20;;;;;;;;;;3366952;42;20167;-56
2022/07/16 10:11:45;;;;;;;5.47;2.30;;;;;;;;;;3350913;42;20589;-56
2022/07/16 10:14:11;;;;;;;5.95;2.38;;;;;;;;;;3346379;42;20144;-57
2022/07/16 10:16:41;;;;;;;7.13;2.80;;;;;;;;;;3362733;42;20093;-57
2022/07/16 10:19:07;;;;;;;5.45;2.38;;;;;;;;;;3371217;42;20087;-57
2022/07/16 10:21:33;;;;;;;6.72;2.67;;;;;;;;;;3368976;42;20142;-56
2022/07/16 10:24:10;;;;;;;6.15;2.40;;;;;;;;;;3355201;42;20501;-57
2022/07/16 10:26:37;;;;;;;5.72;2.50;;;;;;;;;;3357054;42;20608;-58
2022/07/16 10:29:03;;;;;;;5.83;2.77;;;;;;;;;;3366845;42;20618;-56
2022/07/16 10:31:36;;;;;;;6.35;2.50;;;;;;;;;;3366923;42;20562;-58
2022/07/16 10:34:14;;;;;;;11.20;2.78;;;;;;;;;;3366230;42;20600;-56
2022/07/16 10:36:47;;;;;;;6.63;2.30;;;;;;;;;;3367287;42;20625;-57
2022/07/16 10:39:15;;;;;;;6.47;2.25;;;;;;;;;;3366207;42;20147;-57
2022/07/16 10:41:52;;;;;;;7.10;2.40;;;;;;;;;;3353621;42;20106;-57
2022/07/16 10:44:18;;;;;;;5.30;2.50;;;;;;;;;;3367525;42;20096;-58
2022/07/16 10:46:51;;;;;;;8.05;2.78;;;;;;;;;;3366303;42;20123;-57
2022/07/16 10:49:17;;;;;;;5.30;2.50;;;;;;;;;;3367642;42;20166;-56
2022/07/16 10:52:08;;;;;;;8.20;2.90;;;;;;;;;;3366749;42;20111;-60
2022/07/16 10:55:01;;;;;;;6.03;2.50;;;;;;;;;;3367066;42;20554;-59
2022/07/16 10:57:35;;;;;;;5.70;2.58;;;;;;;;;;3355681;42;20091;-57
2022/07/16 11:00:01;;;;;;;6.18;2.30;;;;;;;;;;3366544;42;20102;-58
2022/07/16 11:02:27;;;;;;;6.63;2.40;;;;;;;;;;3362268;42;20139;-58
2022/07/16 11:04:53;;;;;;;5.30;2.43;;;;;;;;;;3366616;42;20236;-59
2022/07/16 11:07:21;;;;;;;5.85;2.17;;;;;;;;;;3357954;42;20158;-58
2022/07/16 11:09:49;;;;;;;5.40;2.58;;;;;;;;;;3366883;42;20092;-58
2022/07/16 11:12:16;;;;;;;7.75;2.60;;;;;;;;;;3351955;42;20573;-58
2022/07/16 11:14:47;;;;;;;5.20;2.28;;;;;;;;;;3365663;42;20088;-57
2022/07/16 11:17:14;;;;;;;6.27;2.30;;;;;;;;;;3366532;42;20096;-56
2022/07/16 11:19:50;;;;;;;5.90;2.42;;;;;;;;;;3366129;42;20135;-58
2022/07/16 11:22:20;;;;;;;5.95;2.40;;;;;;;;;;3366208;42;20551;-59
2022/07/16 11:24:51;;;;;;;6.43;2.38;;;;;;;;;;3366262;42;20088;-58
2022/07/16 11:27:18;;;;;;;5.68;2.40;;;;;;;;;;3366285;42;20577;-58
2022/07/16 11:29:44;;;;;;;6.50;2.53;;;;;;;;;;3366408;42;20110;-59
2022/07/16 11:32:16;;;;;;;5.95;2.30;;;;;;;;;;3366362;42;20110;-60
2022/07/16 11:34:44;;;;;;;5.82;2.50;;;;;;;;;;3361915;42;20801;-59
2022/07/16 11:37:10;;;;;;;6.00;2.30;;;;;;;;;;3365055;42;20554;-58
2022/07/16 11:39:38;;;;;;;5.45;2.40;;;;;;;;;;3366100;42;20094;-58
2022/07/16 11:52:38;;;;;;;7.13;2.80;;;;;;;;;;3029442;39;20397;-51
2022/07/16 11:55:09;;;;;;;7.15;3.25;;;;;;;;;;3384588;42;20097;-49
2022/07/16 11:57:35;;;;;;;6.55;2.60;;;;;;;;;;3385196;42;20105;-52
2022/07/16 12:00:01;;;;;;;10.55;2.70;;;;;;;;;;3380410;42;20138;-52
2022/07/16 12:02:27;;;;;;;7.33;2.60;;;;;;;;;;3384666;42;20102;-53
2022/07/16 12:04:57;;;;;;;5.82;2.83;;;;;;;;;;3387542;42;20091;-54
2022/07/16 12:07:26;;;;;;;6.03;2.58;;;;;;;;;;3387844;42;20140;-52
2022/07/16 12:09:56;;;;;;;7.05;2.92;;;;;;;;;;3389108;42;20213;-50
2022/07/16 12:12:23;;;;;;;6.18;2.63;;;;;;;;;;3386811;42;20091;-54
2022/07/16 12:14:59;;;;;;;6.37;2.60;;;;;;;;;;3381146;42;20102;-50
2022/07/16 12:17:27;;;;;;;5.85;2.95;;;;;;;;;;3386049;42;20625;-55
2022/07/16 12:20:08;;;;;;;6.18;2.65;;;;;;;;;;3385206;42;20518;-51
2022/07/16 12:22:44;;;;;;;6.93;2.88;;;;;;;;;;3382169;42;20146;-51
2022/07/16 12:25:22;;;;;;;6.80;2.75;;;;;;;;;;3386733;42;20134;-54
2022/07/16 12:27:53;;;;;;;6.00;2.83;;;;;;;;;;3382397;42;20088;-55
2022/07/16 12:30:48;;;;;;;5.63;2.67;;;;;;;;;;3384120;42;20166;-58
2022/07/16 12:33:23;;;;;;;6.78;3.00;;;;;;;;;;3383591;42;20178;-58
2022/07/16 12:35:58;;;;;;;5.47;2.75;;;;;;;;;;3385311;42;20139;-56
2022/07/16 12:38:52;;;;;;;5.95;2.70;;;;;;;;;;3384898;42;20158;-58
2022/07/16 12:41:47;;;;;;;7.20;2.53;;;;;;;;;;3378372;42;20158;-59
2022/07/16 12:44:18;;;;;;;5.70;2.40;;;;;;;;;;3386409;42;20564;-56
2022/07/16 12:46:51;;;;;;;5.72;2.60;;;;;;;;;;3390815;42;20095;-59
2022/07/16 12:49:36;;;;;;;8.13;2.63;;;;;;;;;;3383646;42;20101;-59
2022/07/16 12:52:03;;;;;;;6.22;2.75;;;;;;;;;;3383399;42;20129;-58
2022/07/16 12:58:47;;;;;;;10.10;2.83;;;;;;;;;;3383372;42;20111;-60
2022/07/16 13:00:00;;;;;;;6.50;2.70;;;;;;;;;;3380051;42;20142;-59
2022/07/16 13:02:27;;;;;;;9.13;2.60;;;;;;;;;;3381989;42;20146;-60
2022/07/16 13:04:53;;;;;;;8.35;3.00;;;;;;;;;;3381438;42;20091;-59
2022/07/16 13:07:19;;;;;;;5.90;2.57;;;;;;;;;;3381208;42;20090;-55
2022/07/16 13:09:44;;;;;;;5.68;2.60;;;;;;;;;;3376699;42;20562;-56
2022/07/16 13:12:10;;;;;;;6.40;2.90;;;;;;;;;;3376042;42;20083;-58
2022/07/16 13:14:36;;;;;;;6.63;2.40;;;;;;;;;;3380225;42;20595;-58
2022/07/16 13:17:02;;;;;;;6.32;2.72;;;;;;;;;;3375738;42;20127;-55
2022/07/16 13:19:29;;;;;;;6.38;2.80;;;;;;;;;;3376144;42;20095;-56
2022/07/16 13:21:55;;;;;;;5.70;2.60;;;;;;;;;;3378933;42;20098;-59
2022/07/16 13:24:21;;;;;;;6.70;2.90;;;;;;;;;;3379826;42;20114;-57
2022/07/16 13:26:47;;;;;;;6.45;2.70;;;;;;;;;;3378372;42;20083;-57
2022/07/16 13:29:13;;;;;;;6.15;2.78;;;;;;;;;;3379937;42;20084;-56
2022/07/16 13:31:39;;;;;;;7.05;2.83;;;;;;;;;;3378953;42;20199;-54
2022/07/16 13:34:05;;;;;;;6.70;2.70;;;;;;;;;;3380946;42;20097;-57
2022/07/16 13:36:31;;;;;;;6.18;2.70;;;;;;;;;;3384202;42;20101;-56
2022/07/16 13:38:56;;;;;;;6.90;3.08;;;;;;;;;;3380675;42;20512;-56
2022/07/16 13:41:23;;;;;;;7.47;2.97;;;;;;;;;;3382638;42;20109;-59
2022/07/16 13:43:49;;;;;;;6.15;2.90;;;;;;;;;;3376669;42;20165;-57
2022/07/16 13:46:15;;;;;;;5.80;2.60;;;;;;;;;;3384283;42;20117;-57
2022/07/16 13:48:41;;;;;;;6.82;2.90;;;;;;;;;;3380211;42;20083;-56
2022/07/16 13:51:07;;;;;;;6.23;2.93;;;;;;;;;;3380794;42;20110;-55
2022/07/16 13:53:33;;;;;;;6.28;3.00;;;;;;;;;;3380811;42;20142;-57
2022/07/16 13:55:59;;;;;;;6.72;3.28;;;;;;;;;;3375885;42;20106;-57
2022/07/16 13:58:25;;;;;;;8.27;3.20;;;;;;;;;;3382675;42;20094;-57
2022/07/16 14:00:52;;;;;;;7.10;3.00;;;;;;;;;;3377058;42;20406;-55
2022/07/16 14:03:20;;;;;;;8.05;3.33;;;;;;;;;;3377007;42;20549;-55
2022/07/16 14:05:46;;;;;;;9.38;4.80;;;;;;;;;;3384235;42;20091;-58
2022/07/16 14:08:12;;;;;;;9.23;4.60;;;;;;;;;;3379767;42;20087;-59
2022/07/16 14:10:39;;;;;;;8.65;3.30;;;;;;;;;;3382914;42;20093;-57
2022/07/16 14:13:05;;;;;;;6.27;3.23;;;;;;;;;;3379574;42;20090;-56
2022/07/16 14:15:31;;;;;;;8.85;4.00;;;;;;;;;;3379216;42;20600;-58
2022/07/16 14:17:58;;;;;;;6.55;3.15;;;;;;;;;;3379695;42;20591;-55
2022/07/16 14:20:24;;;;;;;6.80;2.92;;;;;;;;;;3378064;42;20099;-57
2022/07/16 14:22:50;;;;;;;6.27;2.97;;;;;;;;;;3371562;42;20087;-58
2022/07/16 14:25:16;;;;;;;7.05;3.35;;;;;;;;;;3380324;42;20110;-57
2022/07/16 14:27:42;;;;;;;6.18;3.03;;;;;;;;;;3378799;42;20093;-56
2022/07/16 14:30:10;;;;;;;8.82;2.97;;;;;;;;;;3380297;42;20570;-57
2022/07/16 14:32:38;;;;;;;6.60;3.08;;;;;;;;;;3380744;42;20146;-56
2022/07/16 14:35:06;;;;;;;6.47;2.70;;;;;;;;;;3378567;42;20156;-57
2022/07/16 14:37:32;;;;;;;6.07;3.03;;;;;;;;;;3379997;42;20665;-58
2022/07/16 14:39:58;;;;;;;7.82;3.00;;;;;;;;;;3376438;42;20099;-57
2022/07/16 14:42:24;;;;;;;6.13;2.95;;;;;;;;;;3378468;42;20094;-58
2022/07/16 14:44:50;;;;;;;6.47;2.73;;;;;;;;;;3381526;42;20095;-57
2022/07/16 14:47:16;;;;;;;7.55;3.08;;;;;;;;;;3377911;42;20655;-57
2022/07/16 14:49:42;;;;;;;6.70;3.00;;;;;;;;;;3378539;42;20122;-57
2022/07/16 14:52:08;;;;;;;5.65;2.80;;;;;;;;;;3379817;42;20114;-56
2022/07/16 14:54:34;;;;;;;6.30;2.93;;;;;;;;;;3382995;42;20087;-55
2022/07/16 14:57:00;;;;;;;6.10;3.00;;;;;;;;;;3378695;42;20091;-58
2022/07/16 14:59:26;;;;;;;5.93;3.00;;;;;;;;;;3384286;42;20552;-55
2022/07/16 15:01:52;;;;;;;7.85;3.00;;;;;;;;;;3380920;42;20168;-56
2022/07/16 15:04:18;;;;;;;6.70;3.30;;;;;;;;;;3381108;42;20596;-55